Time;durP1;ratioP1;P1;durP2;ratioP2;P2;SDS_P1;SDS_P2;PMS_P1;PMS_P2;Temp;Humidity;BMP_temperature;BMP_pressure;BME280_temperature;BME280_humidity;BME280_pressure;Samples;Min_cycle;Max_cycle;Signal;HPM_P1;HPM_P2
2023/02/03 00:00:27;;;;;;;0.90;0.50;;;15.80;51.10;;;;;;5003658;28;20333;-69
2023/02/03 00:02:54;;;;;;;1.08;0.60;;;15.70;50.80;;;;;;5003409;28;20068;-69
2023/02/03 00:05:20;;;;;;;1.25;0.50;;;15.70;50.90;;;;;;5003516;28;20049;-69
2023/02/03 00:07:47;;;;;;;0.60;0.50;;;15.60;51.30;;;;;;5003495;28;20030;-70
2023/02/03 00:10:13;;;;;;;1.95;0.90;;;15.60;51.30;;;;;;5003553;28;20022;-69
2023/02/03 00:12:39;;;;;;;0.88;0.70;;;15.60;51.40;;;;;;5003429;28;20030;-69
2023/02/03 00:15:05;;;;;;;1.08;0.60;;;15.60;51.50;;;;;;5003413;28;20338;-69
2023/02/03 00:17:31;;;;;;;0.73;0.43;;;15.50;51.50;;;;;;5003279;28;20057;-70
2023/02/03 00:19:57;;;;;;;0.60;0.38;;;15.50;51.70;;;;;;5003251;28;20065;-69
2023/02/03 00:22:23;;;;;;;2.30;0.38;;;15.50;51.60;;;;;;5003285;28;20110;-69
2023/02/03 00:24:48;;;;;;;0.95;0.50;;;15.50;51.90;;;;;;5003230;28;20238;-69
2023/02/03 00:27:14;;;;;;;1.25;0.60;;;15.50;51.90;;;;;;5003351;28;20038;-69
2023/02/03 00:29:40;;;;;;;0.85;0.47;;;15.50;51.80;;;;;;5003313;28;20145;-70
2023/02/03 00:32:06;;;;;;;0.70;0.52;;;15.60;52.00;;;;;;5003101;28;20030;-69
2023/02/03 00:34:32;;;;;;;0.55;0.50;;;15.70;51.90;;;;;;5003105;28;20080;-69
2023/02/03 00:36:58;;;;;;;1.10;0.50;;;15.80;51.40;;;;;;5003196;28;20033;-69
2023/02/03 00:39:23;;;;;;;0.63;0.38;;;15.80;51.50;;;;;;5002937;28;20061;-69
2023/02/03 00:41:49;;;;;;;1.77;0.52;;;16.00;51.40;;;;;;5002884;28;20035;-70
2023/02/03 00:44:15;;;;;;;1.10;0.50;;;16.00;51.00;;;;;;5002818;28;20090;-69
2023/02/03 00:46:41;;;;;;;0.45;0.40;;;16.10;50.90;;;;;;5002804;28;20068;-69
2023/02/03 00:49:07;;;;;;;1.10;0.60;;;16.10;50.80;;;;;;5002777;28;20029;-70
2023/02/03 00:51:33;;;;;;;0.90;0.57;;;16.10;50.80;;;;;;5002795;28;20034;-70
2023/02/03 00:53:59;;;;;;;2.05;0.70;;;16.20;50.80;;;;;;5002679;28;20117;-68
2023/02/03 00:56:25;;;;;;;1.40;0.50;;;16.20;50.50;;;;;;5002660;28;20435;-69
2023/02/03 00:58:51;;;;;;;1.17;0.52;;;16.20;50.70;;;;;;5002495;28;20348;-69
2023/02/03 01:01:20;;;;;;;0.57;0.57;;;16.20;50.60;;;;;;5002726;28;20340;-69
2023/02/03 01:03:45;;;;;;;;;;;16.10;50.60;;;;;;5002998;28;20065;-69
2023/02/03 01:06:18;;;;;;;1.40;0.40;;;16.10;50.70;;;;;;5002785;28;19902;-69
2023/02/03 01:08:44;;;;;;;1.33;0.38;;;16.00;50.70;;;;;;5002201;28;20050;-69
2023/02/03 01:11:16;;;;;;;1.42;0.73;;;16.00;50.90;;;;;;5002400;28;20034;-69
2023/02/03 01:13:43;;;;;;;0.80;0.52;;;15.90;50.90;;;;;;5002332;28;20340;-69
2023/02/03 01:16:11;;;;;;;1.33;0.68;;;15.80;51.00;;;;;;5002387;28;20026;-70
2023/02/03 01:18:37;;;;;;;2.03;0.55;;;15.80;51.20;;;;;;5002342;28;20022;-69
2023/02/03 01:21:09;;;;;;;1.08;0.40;;;15.80;51.20;;;;;;5002207;28;20234;-69
2023/02/03 01:23:35;;;;;;;0.45;0.45;;;15.70;52.00;;;;;;5002098;28;20027;-69
2023/02/03 01:26:06;;;;;;;1.45;0.77;;;15.60;51.40;;;;;;5002400;28;20037;-69
2023/02/03 01:28:32;;;;;;;1.38;0.75;;;15.60;51.50;;;;;;5000969;28;20191;-68
2023/02/03 01:31:12;;;;;;;1.50;0.55;;;15.60;51.60;;;;;;5002108;28;20037;-69
2023/02/03 01:33:39;;;;;;;0.60;0.60;;;15.50;51.60;;;;;;5001985;28;20309;-69
2023/02/03 01:36:08;;;;;;;0.90;0.52;;;15.50;52.30;;;;;;5001856;28;20101;-69
2023/02/03 01:38:34;;;;;;;1.10;0.82;;;15.50;51.80;;;;;;5001832;28;20030;-69
2023/02/03 01:41:00;;;;;;;0.70;0.45;;;15.40;51.80;;;;;;5001728;28;20333;-69
2023/02/03 01:43:38;;;;;;;0.57;0.40;;;15.40;51.80;;;;;;5001672;28;20054;-69
2023/02/03 01:46:26;;;;;;;0.60;0.47;;;15.40;51.80;;;;;;5001700;28;20030;-68
2023/02/03 01:49:17;;;;;;;0.85;0.60;;;15.50;51.80;;;;;;4994305;28;20269;-68
2023/02/03 01:51:44;;;;;;;1.38;0.50;;;15.70;51.70;;;;;;5001616;28;20217;-69
2023/02/03 01:54:19;;;;;;;1.05;0.90;;;15.80;51.60;;;;;;5001393;28;20094;-69
2023/02/03 01:56:51;;;;;;;1.15;0.50;;;15.90;51.50;;;;;;5001517;28;20031;-68
2023/02/03 01:59:20;;;;;;;0.85;0.40;;;16.00;51.30;;;;;;5001513;28;20085;-69
2023/02/03 02:01:47;;;;;;;1.23;0.50;;;16.00;51.10;;;;;;5001407;28;20027;-69
2023/02/03 02:04:13;;;;;;;1.65;0.30;;;16.10;51.00;;;;;;5001299;28;20262;-69
2023/02/03 02:06:39;;;;;;;1.52;0.40;;;16.10;50.90;;;;;;5001274;28;20018;-69
2023/02/03 02:09:05;;;;;;;0.90;0.50;;;16.10;50.60;;;;;;5001228;28;20037;-68
2023/02/03 02:11:30;;;;;;;0.43;0.43;;;16.00;50.60;;;;;;5001134;28;20206;-68
2023/02/03 02:14:01;;;;;;;1.63;0.85;;;16.00;50.90;;;;;;5001084;28;20030;-68
2023/02/03 02:17:02;;;;;;;1.05;0.50;;;15.90;50.80;;;;;;5001205;28;20093;-69
2023/02/03 02:19:46;;;;;;;1.27;0.30;;;15.80;50.80;;;;;;5000396;28;20392;-69
2023/02/03 02:22:21;;;;;;;0.68;0.47;;;15.80;51.10;;;;;;5001106;28;20060;-69
2023/02/03 02:25:29;;;;;;;0.98;0.45;;;15.70;51.80;;;;;;5000948;28;20010;-69
2023/02/03 02:28:14;;;;;;;1.00;0.85;;;15.60;51.30;;;;;;4981911;28;20041;-67
2023/02/03 02:30:53;;;;;;;0.75;0.40;;;15.60;51.50;;;;;;5000966;28;20412;-69
2023/02/03 02:33:40;;;;;;;1.20;0.50;;;15.50;52.10;;;;;;5000827;28;20242;-69
2023/02/03 02:36:24;;;;;;;0.68;0.38;;;15.50;51.70;;;;;;5001028;28;20010;-68
2023/02/03 02:38:57;;;;;;;0.60;0.40;;;15.50;51.80;;;;;;5001060;28;20042;-69
2023/02/03 02:41:49;;;;;;;0.65;0.50;;;15.50;51.90;;;;;;5001096;28;20360;-69
2023/02/03 02:44:24;;;;;;;2.65;0.60;;;15.40;51.90;;;;;;5001014;28;20037;-69
2023/02/03 02:46:58;;;;;;;1.15;0.70;;;15.40;51.90;;;;;;5000891;28;20060;-69
2023/02/03 02:49:34;;;;;;;0.95;0.43;;;15.40;51.90;;;;;;5000862;28;20054;-69
2023/02/03 02:52:04;;;;;;;0.60;0.38;;;15.30;52.00;;;;;;5000739;28;20038;-69
2023/02/03 02:54:32;;;;;;;0.88;0.60;;;15.40;52.00;;;;;;5000674;28;20022;-70
2023/02/03 02:57:00;;;;;;;0.80;0.53;;;15.40;52.00;;;;;;5000672;28;20221;-69
2023/02/03 02:59:26;;;;;;;1.75;0.35;;;15.50;51.80;;;;;;5000756;28;20315;-68
2023/02/03 03:01:52;;;;;;;0.90;0.40;;;15.60;51.60;;;;;;5000489;28;20037;-68
2023/02/03 03:04:27;;;;;;;4.72;0.60;;;15.70;51.60;;;;;;5000568;28;20141;-69
2023/02/03 03:07:02;;;;;;;0.70;0.70;;;15.80;51.30;;;;;;5000537;28;20048;-69
2023/02/03 03:09:35;;;;;;;2.30;0.52;;;15.80;51.20;;;;;;5000540;28;20219;-68
2023/02/03 03:12:18;;;;;;;0.75;0.32;;;15.80;51.00;;;;;;5000511;28;20026;-68
2023/02/03 03:14:59;;;;;;;1.13;0.57;;;15.90;51.10;;;;;;5000545;28;20034;-68
2023/02/03 03:17:32;;;;;;;0.57;0.50;;;15.90;51.00;;;;;;5000568;28;20026;-68
2023/02/03 03:20:02;;;;;;;0.75;0.75;;;16.00;50.80;;;;;;4999257;28;20523;-69
2023/02/03 03:22:33;;;;;;;0.95;0.50;;;16.00;50.80;;;;;;5000473;28;20026;-68
2023/02/03 03:25:18;;;;;;;1.23;0.45;;;16.00;50.50;;;;;;4999210;28;20333;-69
2023/02/03 03:27:55;;;;;;;0.77;0.60;;;15.90;50.60;;;;;;5000323;28;20031;-69
2023/02/03 03:30:24;;;;;;;1.17;0.60;;;15.80;50.60;;;;;;5001583;28;20029;-68
2023/02/03 03:32:50;;;;;;;0.88;0.50;;;15.80;50.80;;;;;;5003888;28;20036;-68
2023/02/03 03:35:17;;;;;;;0.52;0.30;;;15.70;50.90;;;;;;5003935;28;20045;-68
2023/02/03 03:37:57;;;;;;;1.10;0.60;;;15.60;51.00;;;;;;5003907;28;20026;-69
2023/02/03 03:40:24;;;;;;;0.63;0.40;;;15.60;51.20;;;;;;5003873;28;20068;-68
2023/02/03 03:43:23;;;;;;;0.68;0.68;;;15.60;51.40;;;;;;5003798;28;20093;-68
2023/02/03 03:45:58;;;;;;;;;;;15.50;51.50;;;;;;4996693;28;20042;-69
2023/02/03 03:48:53;;;;;;;0.40;0.30;;;15.50;51.60;;;;;;5003830;28;19909;-69
2023/02/03 03:51:30;;;;;;;2.35;0.55;;;15.50;51.70;;;;;;5003666;28;20356;-68
2023/02/03 03:54:00;;;;;;;1.55;0.60;;;15.50;52.10;;;;;;5003741;28;20018;-68
2023/02/03 03:56:33;;;;;;;1.10;0.40;;;15.50;51.90;;;;;;5003761;28;20014;-68
2023/02/03 03:59:02;;;;;;;0.50;0.43;;;15.50;52.10;;;;;;5003831;28;20052;-69
2023/02/03 04:01:29;;;;;;;0.95;0.40;;;15.40;52.00;;;;;;5003498;28;20022;-69
2023/02/03 04:04:01;;;;;;;1.20;0.30;;;15.40;52.10;;;;;;5003462;28;20046;-70
2023/02/03 04:06:27;;;;;;;0.32;0.32;;;15.40;52.00;;;;;;5003553;28;20310;-69
2023/02/03 04:08:53;;;;;;;1.80;0.47;;;15.30;52.10;;;;;;5003373;28;20022;-69
2023/02/03 04:14:04;;;;;;;0.70;0.50;;;15.40;52.10;;;;;;5003178;28;20073;-69
2023/02/03 04:16:29;;;;;;;2.15;0.60;;;15.50;52.20;;;;;;5003227;28;20094;-69
2023/02/03 04:18:55;;;;;;;0.63;0.50;;;15.60;52.00;;;;;;5003172;28;20030;-69
2023/02/03 04:21:21;;;;;;;0.85;0.47;;;15.60;51.80;;;;;;5003139;28;20033;-69
2023/02/03 04:23:47;;;;;;;0.80;0.50;;;15.70;51.80;;;;;;5003068;28;20034;-69
2023/02/03 04:26:13;;;;;;;2.75;0.80;;;15.80;51.50;;;;;;5003071;28;20038;-68
2023/02/03 04:28:38;;;;;;;1.08;0.45;;;15.90;51.90;;;;;;5003081;28;20023;-69
2023/02/03 04:31:04;;;;;;;1.13;0.80;;;15.80;51.20;;;;;;5003057;28;20053;-69
2023/02/03 04:33:30;;;;;;;0.85;0.40;;;15.90;51.10;;;;;;5002854;28;20329;-69
2023/02/03 04:35:56;;;;;;;1.08;0.70;;;15.90;51.00;;;;;;5003030;28;20034;-69
2023/02/03 04:38:22;;;;;;;1.23;0.40;;;16.00;51.20;;;;;;5002952;28;20026;-69
2023/02/03 04:40:47;;;;;;;0.63;0.55;;;16.00;51.00;;;;;;5002925;28;20026;-69
2023/02/03 04:43:15;;;;;;;0.52;0.45;;;16.10;50.90;;;;;;5002270;28;20036;-69
2023/02/03 04:45:41;;;;;;;0.90;0.50;;;16.10;50.80;;;;;;5002948;28;20218;-68
2023/02/03 04:48:07;;;;;;;1.63;0.73;;;16.00;50.70;;;;;;5002863;28;20076;-68
2023/02/03 04:50:33;;;;;;;0.90;0.47;;;16.00;50.70;;;;;;5002863;28;20030;-68
2023/02/03 04:52:59;;;;;;;0.77;0.60;;;15.90;50.80;;;;;;5002628;28;20014;-69
2023/02/03 04:55:26;;;;;;;0.93;0.50;;;15.90;50.90;;;;;;5002698;28;20026;-69
2023/02/03 04:58:00;;;;;;;1.50;0.60;;;15.80;50.90;;;;;;5002697;28;20018;-69
2023/02/03 05:00:27;;;;;;;0.50;0.50;;;15.80;51.10;;;;;;5002617;28;20225;-67
2023/02/03 05:02:53;;;;;;;2.50;0.95;;;15.60;51.10;;;;;;5002365;28;20081;-68
2023/02/03 05:05:20;;;;;;;1.92;0.60;;;15.60;51.30;;;;;;5002516;28;20310;-68
2023/02/03 05:07:46;;;;;;;1.52;0.60;;;15.60;51.40;;;;;;5002522;28;20041;-69
2023/02/03 05:10:11;;;;;;;1.65;0.85;;;15.50;51.60;;;;;;5002514;28;20349;-68
2023/02/03 05:12:37;;;;;;;0.47;0.47;;;15.50;51.70;;;;;;5002439;28;20038;-69
2023/02/03 05:15:03;;;;;;;1.02;0.60;;;15.50;51.70;;;;;;5002457;28;20033;-69
2023/02/03 05:17:29;;;;;;;0.52;0.50;;;15.40;51.90;;;;;;5002287;28;20057;-69
2023/02/03 05:19:55;;;;;;;0.95;0.52;;;15.40;51.90;;;;;;5002279;28;20054;-68
2023/02/03 05:22:21;;;;;;;0.43;0.40;;;15.40;52.00;;;;;;5002163;28;20241;-69
2023/02/03 05:24:47;;;;;;;0.68;0.60;;;15.40;52.00;;;;;;5002198;28;20072;-68
2023/02/03 05:27:13;;;;;;;0.98;0.45;;;15.40;52.20;;;;;;5002119;28;20249;-69
2023/02/03 05:29:38;;;;;;;0.40;0.38;;;15.40;52.10;;;;;;5002092;28;20033;-69
2023/02/03 05:32:04;;;;;;;0.57;0.35;;;15.30;52.10;;;;;;5002092;28;20077;-69
2023/02/03 05:34:30;;;;;;;0.50;0.32;;;15.30;52.20;;;;;;5001783;28;20030;-69
2023/02/03 05:36:56;;;;;;;0.60;0.60;;;15.40;52.20;;;;;;5002001;28;20085;-69
2023/02/03 05:39:22;;;;;;;0.70;0.32;;;15.40;52.00;;;;;;5001870;28;20026;-69
2023/02/03 05:41:54;;;;;;;0.88;0.70;;;15.50;52.10;;;;;;5001841;28;20026;-69
2023/02/03 05:44:22;;;;;;;0.73;0.60;;;15.60;51.90;;;;;;5001767;28;20030;-69
2023/02/03 05:46:49;;;;;;;1.60;0.50;;;15.70;51.80;;;;;;5001799;28;20057;-69
2023/02/03 05:49:15;;;;;;;1.13;1.02;;;15.80;51.60;;;;;;5001734;28;20318;-69
2023/02/03 05:51:41;;;;;;;1.00;0.68;;;15.80;51.40;;;;;;5001598;28;20065;-68
2023/02/03 05:54:08;;;;;;;0.95;0.60;;;15.80;51.30;;;;;;5001453;28;20026;-68
2023/02/03 05:56:34;;;;;;;0.95;0.70;;;15.90;51.20;;;;;;5001613;28;20023;-69
2023/02/03 05:59:00;;;;;;;0.52;0.52;;;15.90;51.20;;;;;;5001544;28;20042;-69
2023/02/03 06:01:25;;;;;;;0.50;0.40;;;15.90;51.10;;;;;;5001488;28;20318;-69
2023/02/03 06:03:51;;;;;;;1.20;0.50;;;15.90;51.00;;;;;;5001327;28;20062;-69
2023/02/03 06:06:17;;;;;;;1.40;0.65;;;15.90;51.00;;;;;;5001501;28;20057;-69
2023/02/03 06:08:43;;;;;;;1.08;0.57;;;15.80;51.00;;;;;;5001388;28;20057;-69
2023/02/03 06:11:10;;;;;;;0.60;0.43;;;15.70;51.20;;;;;;5001319;28;20072;-69
2023/02/03 06:13:36;;;;;;;1.30;0.50;;;15.60;51.20;;;;;;5001293;28;20026;-69
2023/02/03 06:16:03;;;;;;;0.55;0.50;;;15.60;51.40;;;;;;5001312;28;20089;-69
2023/02/03 06:18:29;;;;;;;1.70;0.70;;;15.60;51.40;;;;;;5001079;28;20022;-69
2023/02/03 06:20:55;;;;;;;1.75;0.70;;;15.50;51.50;;;;;;5001101;28;20033;-69
2023/02/03 06:23:21;;;;;;;1.73;0.65;;;15.50;51.60;;;;;;5001147;28;20026;-68
2023/02/03 06:25:48;;;;;;;0.50;0.45;;;15.40;51.70;;;;;;5001197;28;20333;-68
2023/02/03 06:28:14;;;;;;;0.70;0.55;;;15.40;51.80;;;;;;5001164;28;20384;-69
2023/02/03 06:30:40;;;;;;;1.20;0.50;;;15.40;51.90;;;;;;5000931;28;20041;-69
2023/02/03 06:33:06;;;;;;;1.13;0.70;;;15.40;52.00;;;;;;5000816;28;20034;-68
2023/02/03 06:35:31;;;;;;;0.50;0.50;;;15.40;52.10;;;;;;5000899;28;20025;-68
2023/02/03 06:37:57;;;;;;;0.43;0.43;;;15.30;52.10;;;;;;5000866;28;20034;-68
2023/02/03 06:40:23;;;;;;;0.47;0.47;;;15.30;52.10;;;;;;5000854;28;20057;-69
2023/02/03 06:42:50;;;;;;;0.40;0.32;;;15.30;52.30;;;;;;5000792;28;20041;-69
2023/02/03 06:45:16;;;;;;;0.60;0.55;;;15.30;52.30;;;;;;5000913;28;20050;-68
2023/02/03 06:47:43;;;;;;;0.63;0.52;;;15.30;52.90;;;;;;5000812;28;20040;-67
2023/02/03 06:50:12;;;;;;;0.70;0.47;;;15.40;52.40;;;;;;5000826;28;20034;-69
2023/02/03 06:52:38;;;;;;;1.10;0.50;;;15.40;52.20;;;;;;5000627;28;20467;-68
2023/02/03 06:55:05;;;;;;;1.13;0.47;;;15.50;52.10;;;;;;5000669;28;20030;-69
2023/02/03 06:57:32;;;;;;;1.30;0.40;;;15.60;52.00;;;;;;5000618;28;20027;-69
2023/02/03 06:59:57;;;;;;;0.50;0.50;;;15.70;51.90;;;;;;5000640;28;20049;-69
2023/02/03 07:02:23;;;;;;;0.75;0.50;;;15.80;51.70;;;;;;5000444;28;20054;-70
2023/02/03 07:04:49;;;;;;;0.50;0.35;;;15.90;51.60;;;;;;5001001;28;20057;-69
2023/02/03 07:07:16;;;;;;;0.50;0.40;;;15.90;51.40;;;;;;5004563;28;20044;-69
2023/02/03 07:09:42;;;;;;;0.40;0.35;;;15.90;51.20;;;;;;5004557;28;20069;-69
2023/02/03 07:12:08;;;;;;;0.85;0.45;;;16.00;51.10;;;;;;5004384;28;20242;-69
2023/02/03 07:14:35;;;;;;;0.85;0.52;;;16.00;51.00;;;;;;5004435;28;20364;-69
2023/02/03 07:17:04;;;;;;;0.55;0.45;;;16.10;51.00;;;;;;5004370;28;20030;-69
2023/02/03 07:19:29;;;;;;;1.13;0.85;;;16.10;50.90;;;;;;5002998;28;20023;-69
2023/02/03 07:21:55;;;;;;;0.73;0.43;;;16.10;50.80;;;;;;5004305;28;20069;-69
2023/02/03 07:24:21;;;;;;;0.73;0.50;;;16.00;50.80;;;;;;5004293;28;20101;-69
2023/02/03 07:26:47;;;;;;;1.00;0.60;;;16.00;50.90;;;;;;5004254;28;20326;-69
2023/02/03 07:29:13;;;;;;;0.95;0.70;;;15.90;50.90;;;;;;5004330;28;20054;-68
2023/02/03 07:31:38;;;;;;;0.73;0.30;;;15.90;51.00;;;;;;5004274;28;20298;-68
2023/02/03 07:34:05;;;;;;;0.45;0.35;;;15.80;51.10;;;;;;5003998;28;20034;-69
2023/02/03 07:36:31;;;;;;;0.93;0.40;;;15.80;51.20;;;;;;5003947;28;20292;-69
2023/02/03 07:38:57;;;;;;;1.08;0.50;;;15.70;51.20;;;;;;5003941;28;20030;-68
2023/02/03 07:41:23;;;;;;;0.73;0.60;;;15.70;51.40;;;;;;5003851;28;20029;-69
2023/02/03 07:43:49;;;;;;;1.13;0.60;;;15.70;51.40;;;;;;5003856;28;20038;-69
2023/02/03 07:46:16;;;;;;;2.53;0.60;;;15.60;51.50;;;;;;5003870;28;20313;-69
2023/02/03 07:48:41;;;;;;;0.80;0.50;;;15.50;51.50;;;;;;5003842;28;20026;-68
2023/02/03 07:51:07;;;;;;;1.30;0.50;;;15.50;51.60;;;;;;4996404;28;20405;-69
2023/02/03 07:53:33;;;;;;;4.15;0.70;;;15.50;51.70;;;;;;4997609;28;20030;-68
2023/02/03 07:56:00;;;;;;;5.88;1.52;;;15.50;51.80;;;;;;4998162;28;20034;-68
2023/02/03 07:58:27;;;;;;;4.85;1.35;;;15.70;51.30;;;;;;5003343;28;20317;-68
2023/02/03 08:00:53;;;;;;;3.53;0.65;;;15.90;51.00;;;;;;5002431;28;20093;-68
2023/02/03 08:03:18;;;;;;;3.78;0.80;;;16.10;50.70;;;;;;5001829;28;20108;-68
2023/02/03 08:05:44;;;;;;;5.65;1.02;;;16.10;50.40;;;;;;5001891;28;20034;-69
2023/02/03 08:08:10;;;;;;;3.90;0.75;;;16.20;50.30;;;;;;5002377;28;20030;-70
2023/02/03 08:10:36;;;;;;;1.42;0.63;;;16.30;50.20;;;;;;4998120;28;20038;-69
2023/02/03 08:13:02;;;;;;;5.15;1.10;;;16.30;50.10;;;;;;4991453;28;20022;-69
2023/02/03 08:15:28;;;;;;;1.15;0.60;;;16.30;50.10;;;;;;4988079;28;20110;-69
2023/02/03 08:17:53;;;;;;;1.33;0.60;;;16.40;50.70;;;;;;4997936;28;20065;-69
2023/02/03 08:20:20;;;;;;;4.93;0.80;;;16.40;50.10;;;;;;4988748;28;20030;-68
2023/02/03 08:22:45;;;;;;;2.33;0.47;;;16.50;50.00;;;;;;5002928;28;20030;-68
2023/02/03 08:25:12;;;;;;;1.73;0.50;;;16.50;50.00;;;;;;5002878;28;20045;-69
2023/02/03 08:27:38;;;;;;;2.42;0.50;;;16.50;50.00;;;;;;4996784;28;20026;-68
2023/02/03 08:30:05;;;;;;;2.50;0.80;;;16.60;50.00;;;;;;5000225;28;20029;-69
2023/02/03 08:32:32;;;;;;;1.70;0.50;;;16.60;50.00;;;;;;5002354;28;20026;-69
2023/02/03 08:34:58;;;;;;;4.47;1.05;;;16.60;50.00;;;;;;5002720;28;20360;-68
2023/02/03 08:37:24;;;;;;;1.90;0.80;;;16.60;50.00;;;;;;5001426;28;20035;-67
2023/02/03 08:39:51;;;;;;;0.90;0.60;;;16.70;50.00;;;;;;5002517;28;20022;-69
2023/02/03 08:42:18;;;;;;;4.30;0.73;;;16.70;50.00;;;;;;5001152;28;20072;-70
2023/02/03 08:44:44;;;;;;;2.03;1.00;;;16.70;50.00;;;;;;5001614;28;20018;-70
2023/02/03 08:47:11;;;;;;;4.20;0.88;;;16.70;50.00;;;;;;5002182;28;20197;-71
2023/02/03 08:49:38;;;;;;;5.75;0.85;;;16.70;49.80;;;;;;4994194;28;20018;-70
2023/02/03 08:52:07;;;;;;;3.35;0.73;;;16.70;50.00;;;;;;5000317;28;20029;-68
2023/02/03 08:54:33;;;;;;;6.85;0.88;;;16.70;50.20;;;;;;5001823;28;20030;-69
2023/02/03 08:56:59;;;;;;;1.65;0.93;;;16.80;50.20;;;;;;5001933;28;20032;-69
2023/02/03 08:59:25;;;;;;;18.02;2.58;;;16.80;50.20;;;;;;5000337;28;20025;-69
2023/02/03 09:01:51;;;;;;;23.08;2.90;;;16.80;50.20;;;;;;5001969;28;20027;-70
2023/02/03 09:04:23;;;;;;;14.90;1.67;;;16.90;50.40;;;;;;5002035;28;20077;-68
2023/02/03 09:06:50;;;;;;;4.20;0.93;;;16.90;50.10;;;;;;5001968;28;20318;-69
2023/02/03 09:09:16;;;;;;;8.13;1.10;;;16.90;50.10;;;;;;5002127;28;20128;-69
2023/02/03 09:11:42;;;;;;;21.30;2.80;;;16.90;50.10;;;;;;5002041;28;20369;-68
2023/02/03 09:14:09;;;;;;;60.15;4.07;;;16.90;50.30;;;;;;5001956;28;20026;-69
2023/02/03 09:16:35;;;;;;;30.42;2.75;;;16.90;50.40;;;;;;5001939;28;20029;-70
2023/02/03 09:19:01;;;;;;;26.10;1.92;;;16.90;50.50;;;;;;5001921;28;20082;-69
2023/02/03 09:21:27;;;;;;;23.60;1.92;;;16.90;50.50;;;;;;5001745;28;20030;-70
2023/02/03 09:23:53;;;;;;;23.85;2.08;;;17.00;50.50;;;;;;5001761;28;20057;-70
2023/02/03 09:26:19;;;;;;;16.88;1.75;;;17.00;50.40;;;;;;5001626;28;20023;-70
2023/02/03 09:28:44;;;;;;;34.00;2.80;;;17.00;50.40;;;;;;5001356;28;20034;-71
2023/02/03 09:31:18;;;;;;;33.75;1.85;;;17.00;50.40;;;;;;5001681;28;20423;-69
2023/02/03 09:33:44;;;;;;;38.30;4.85;;;17.00;50.50;;;;;;5001467;28;20294;-69
2023/02/03 09:36:11;;;;;;;58.60;5.53;;;17.00;50.60;;;;;;5001485;28;20326;-70
2023/02/03 09:38:37;;;;;;;28.42;2.78;;;17.00;50.50;;;;;;5000348;28;20034;-69
2023/02/03 09:41:14;;;;;;;26.48;2.85;;;17.00;50.50;;;;;;5001424;28;20337;-69
2023/02/03 09:44:01;;;;;;;36.35;3.33;;;17.10;50.60;;;;;;5001288;28;20026;-70
2023/02/03 09:46:32;;;;;;;26.75;3.42;;;17.10;50.50;;;;;;5001311;28;20030;-69
2023/02/03 09:49:06;;;;;;;18.95;2.45;;;17.10;51.10;;;;;;4999729;28;20058;-69
2023/02/03 09:51:41;;;;;;;28.25;2.47;;;17.10;50.40;;;;;;5000739;28;20101;-68
2023/02/03 09:54:22;;;;;;;14.38;1.98;;;17.10;50.50;;;;;;5001059;28;20093;-70
2023/02/03 09:56:51;;;;;;;23.67;3.75;;;17.10;50.50;;;;;;5001020;28;20034;-68
2023/02/03 09:59:18;;;;;;;14.00;2.05;;;17.10;50.50;;;;;;5000936;28;20022;-69
2023/02/03 10:01:53;;;;;;;14.43;1.98;;;17.10;50.40;;;;;;5000938;28;20073;-68
2023/02/03 10:04:38;;;;;;;18.33;2.40;;;17.10;50.50;;;;;;5001142;28;20124;-69
2023/02/03 10:07:24;;;;;;;16.15;2.65;;;17.20;50.50;;;;;;5001022;28;20034;-69
2023/02/03 10:10:15;;;;;;;10.85;1.35;;;17.20;50.40;;;;;;5000920;28;20025;-69
2023/02/03 10:13:01;;;;;;;19.60;2.00;;;17.20;50.40;;;;;;5000245;28;20053;-69
2023/02/03 10:15:29;;;;;;;27.20;2.05;;;17.10;50.40;;;;;;5000772;28;20098;-69
2023/02/03 10:18:05;;;;;;;17.52;2.22;;;17.20;50.50;;;;;;5001112;28;20033;-69
2023/02/03 10:20:40;;;;;;;18.77;1.85;;;17.20;50.50;;;;;;5000838;28;20025;-69
2023/02/03 10:23:13;;;;;;;17.55;2.67;;;17.20;50.50;;;;;;5000895;28;20037;-69
2023/02/03 10:25:54;;;;;;;12.40;1.75;;;17.20;50.50;;;;;;5000649;28;20018;-70
2023/02/03 10:28:26;;;;;;;3.47;1.20;;;17.20;50.50;;;;;;5000619;28;20073;-69
2023/02/03 10:30:57;;;;;;;175.75;17.45;;;17.20;50.40;;;;;;5000660;28;20026;-69
2023/02/03 10:33:29;;;;;;;35.00;2.88;;;17.10;48.70;;;;;;5000580;28;20133;-70
2023/02/03 10:36:14;;;;;;;9.05;2.58;;;17.10;50.40;;;;;;5000440;28;20022;-70
2023/02/03 10:39:03;;;;;;;16.17;2.40;;;16.10;42.50;;;;;;5000672;28;20093;-69
2023/02/03 10:41:30;;;;;;;15.20;2.28;;;16.40;50.00;;;;;;5000113;28;20030;-71
2023/02/03 10:43:57;;;;;;;19.83;2.58;;;16.70;51.10;;;;;;5000304;28;20161;-71
2023/02/03 10:46:29;;;;;;;86.90;6.53;;;16.90;51.10;;;;;;5000361;28;20073;-70
2023/02/03 10:48:55;;;;;;;19.90;3.08;;;17.10;51.10;;;;;;5000500;28;20026;-70
2023/02/03 10:51:32;;;;;;;26.20;4.20;;;17.10;51.30;;;;;;5000394;28;20041;-71
2023/02/03 10:53:59;;;;;;;26.75;3.67;;;17.20;50.70;;;;;;5000345;28;20070;-70
2023/02/03 10:56:36;;;;;;;26.48;4.72;;;17.20;50.70;;;;;;5000372;28;20030;-71
2023/02/03 10:59:03;;;;;;;16.10;2.95;;;17.20;50.70;;;;;;4999193;28;20245;-70
2023/02/03 11:01:45;;;;;;;12.10;2.88;;;17.20;45.50;;;;;;5000371;28;20026;-69
2023/02/03 11:04:40;;;;;;;25.02;5.03;;;16.90;50.00;;;;;;4999976;28;20046;-70
2023/02/03 11:07:22;;;;;;;25.55;3.72;;;17.00;50.80;;;;;;4999806;28;20060;-70
2023/02/03 11:09:47;;;;;;;26.40;3.60;;;17.10;50.90;;;;;;5000353;28;20027;-70
2023/02/03 11:12:16;;;;;;;15.02;3.08;;;17.20;50.90;;;;;;5000357;28;20420;-69
2023/02/03 11:14:44;;;;;;;30.58;2.97;;;17.20;51.00;;;;;;5000132;28;20068;-70
2023/02/03 11:17:22;;;;;;;19.00;3.30;;;17.20;51.00;;;;;;5000265;28;20030;-71
2023/02/03 11:19:50;;;;;;;143.97;56.67;;;17.30;51.00;;;;;;5000313;28;20034;-71
2023/02/03 11:22:29;;;;;;;20.30;7.72;;;17.30;51.10;;;;;;5000251;28;20113;-70
2023/02/03 11:24:55;;;;;;;31.95;10.90;;;15.10;42.60;;;;;;4999971;28;20027;-70
2023/02/03 11:27:23;;;;;;;56.42;24.88;;;15.40;50.70;;;;;;4998524;28;20036;-71
2023/02/03 11:29:53;;;;;;;39.73;17.43;;;16.00;52.30;;;;;;5000153;28;20022;-70
2023/02/03 11:32:34;;;;;;;50.97;18.08;;;16.40;52.10;;;;;;5000070;28;20244;-71
2023/02/03 11:35:17;;;;;;;57.63;17.83;;;16.60;51.80;;;;;;4997125;28;20100;-71
2023/02/03 11:37:46;;;;;;;51.03;17.65;;;16.90;51.70;;;;;;4980592;28;20023;-70
2023/02/03 11:40:26;;;;;;;43.97;17.15;;;17.00;51.40;;;;;;4980482;28;20023;-72
2023/02/03 11:42:51;;;;;;;46.47;16.20;;;17.10;51.40;;;;;;4980369;28;20026;-71
2023/02/03 11:45:25;;;;;;;53.42;16.63;;;17.20;51.30;;;;;;4980155;28;20077;-70
2023/02/03 11:48:20;;;;;;;66.82;17.50;;;17.20;51.40;;;;;;4980549;28;20058;-69
2023/02/03 11:50:59;;;;;;;39.75;14.75;;;17.20;51.50;;;;;;4980810;28;20089;-69
2023/02/03 11:53:35;;;;;;;37.90;15.02;;;17.30;51.50;;;;;;4983954;28;20105;-70
2023/02/03 11:56:19;;;;;;;56.60;17.13;;;17.30;51.50;;;;;;4983733;28;20069;-70
2023/02/03 11:59:04;;;;;;;60.30;16.50;;;17.40;51.40;;;;;;4983930;28;20110;-71
2023/02/03 12:01:52;;;;;;;40.65;15.43;;;17.40;51.40;;;;;;4982797;28;20253;-71
2023/02/03 12:04:31;;;;;;;45.75;14.45;;;17.40;51.30;;;;;;4983405;28;20051;-69
2023/02/03 12:07:05;;;;;;;39.72;14.13;;;17.40;51.40;;;;;;4983617;28;20022;-70
2023/02/03 12:10:01;;;;;;;48.20;14.85;;;17.50;51.40;;;;;;4983798;28;20042;-70
2023/02/03 12:12:43;;;;;;;34.75;12.82;;;17.40;51.40;;;;;;4983663;28;20030;-70
2023/02/03 12:15:32;;;;;;;35.83;13.40;;;17.40;51.40;;;;;;4983626;28;20015;-69
2023/02/03 12:18:01;;;;;;;50.13;13.13;;;17.50;51.40;;;;;;4947212;28;20050;-70
2023/02/03 12:20:45;;;;;;;52.05;13.45;;;17.50;51.50;;;;;;4983515;28;20034;-69
2023/02/03 12:23:32;;;;;;;40.28;12.48;;;17.40;51.60;;;;;;4983303;28;20054;-69
2023/02/03 12:26:18;;;;;;;48.72;14.23;;;17.50;51.60;;;;;;4983387;28;20026;-69
2023/02/03 12:28:53;;;;;;;54.55;13.25;;;17.50;51.70;;;;;;4969513;28;20113;-70
2023/02/03 12:31:39;;;;;;;44.05;13.68;;;17.40;51.90;;;;;;4983384;28;20054;-70
2023/02/03 12:34:29;;;;;;;44.75;12.50;;;17.40;51.90;;;;;;4983206;28;20277;-69
2023/02/03 12:37:16;;;;;;;43.15;12.60;;;17.40;51.90;;;;;;4983120;28;20065;-70
2023/02/03 12:40:08;;;;;;;57.88;14.18;;;17.50;51.90;;;;;;4983248;28;20205;-71
2023/02/03 12:42:46;;;;;;;71.20;12.68;;;17.50;51.90;;;;;;4983355;28;20033;-69
2023/02/03 12:45:20;;;;;;;50.92;11.43;;;17.50;52.00;;;;;;4982958;28;20085;-70
2023/02/03 12:48:12;;;;;;;65.65;13.07;;;17.50;51.20;;;;;;4982985;28;20050;-70
2023/02/03 12:50:48;;;;;;;51.03;11.10;;;17.30;51.20;;;;;;4972501;28;20094;-69
2023/02/03 12:53:18;;;;;;;26.48;6.53;;;17.00;51.40;;;;;;4982904;28;20030;-70
2023/02/03 12:55:54;;;;;;;68.15;11.88;;;16.20;48.90;;;;;;4982779;28;20030;-69
2023/02/03 12:58:41;;;;;;;52.38;10.02;;;16.30;53.10;;;;;;4982728;28;20388;-69
2023/02/03 13:01:28;;;;;;;128.30;16.92;;;16.50;53.40;;;;;;4982688;28;20326;-69
2023/02/03 13:04:13;;;;;;;57.13;12.63;;;16.60;54.10;;;;;;4981968;28;20062;-70